Main page
METAR-TAF:

METAR-TAF

Airports :

Castellón–Costa Azahar Airport

Castellón de la Plana, Spain

latitude: 40-12-35N, longitude: 0-04-11E, elevation: 360 m

Current weather observation

The report was made 33 minutes ago, at 15:30 UTC
Wind 10 kt from the Southeast, varying between East and South
Temperature 12°C
Humidity 76%
Pressure 1015 hPa
Visibility 10 km or more
Scattered clouds at a height of 1800 ft
Broken clouds at a height of 4100 ft
Overcast at a height of 5000 ft

METAR: LECH 221530Z AUTO 13010KT 100V170 9999 SCT018 BKN041 OVC050 12/08 Q1015

Time: 18:03 (16:03 UTC)


TAF: missing

Weather observations and forecasts of more than 4000 airports (METAR and TAF reports).

The available stations are represented by yellow and red dots on the map.

Hover mouse over dot to see the name of the station.

Then click to see weather observations and forecasts.

To change the map : click on the green buttons with a black cross to zoom in, on the green button with a dash to zoom out, or on the green arrows for adjacent maps.


METAR-TAF: